Time;durP1;ratioP1;P1;durP2;ratioP2;P2;SDS_P1;SDS_P2;PMS_P1;PMS_P2;Temp;Humidity;BMP_temperature;BMP_pressure;BME280_temperature;BME280_humidity;BME280_pressure;Samples;Min_cycle;Max_cycle;Signal;HPM_P1;HPM_P2
2023/07/23 00:00:48;;;;;;;14.03;7.97;;;;;;;;;;5114253;28;20296;-78
2023/07/23 00:03:16;;;;;;;12.53;7.93;;;;;;;;;;5126628;27;20260;-79
2023/07/23 00:05:45;;;;;;;12.00;7.93;;;;;;;;;;5135023;27;20545;-78
2023/07/23 00:08:13;;;;;;;13.27;8.30;;;;;;;;;;5134679;27;20688;-78
2023/07/23 00:10:40;;;;;;;13.70;8.20;;;;;;;;;;5134886;27;20193;-79
2023/07/23 00:13:08;;;;;;;12.53;7.83;;;;;;;;;;5135294;27;20225;-78
2023/07/23 00:15:36;;;;;;;13.10;7.50;;;;;;;;;;5134666;27;20204;-77
2023/07/23 00:18:03;;;;;;;11.93;7.80;;;;;;;;;;5134774;27;20292;-78
2023/07/23 00:20:30;;;;;;;13.37;8.03;;;;;;;;;;5135033;27;20541;-77
2023/07/23 00:22:58;;;;;;;10.17;7.43;;;;;;;;;;5134667;27;20350;-78
2023/07/23 00:25:25;;;;;;;11.87;7.80;;;;;;;;;;5134750;27;20212;-78
2023/07/23 00:27:52;;;;;;;12.37;7.80;;;;;;;;;;5135037;27;20231;-78
2023/07/23 00:30:19;;;;;;;13.93;7.70;;;;;;;;;;5133649;27;20203;-79
2023/07/23 00:32:48;;;;;;;12.27;7.80;;;;;;;;;;5134622;27;20292;-78
2023/07/23 00:35:15;;;;;;;10.90;7.67;;;;;;;;;;5134798;27;20284;-78
2023/07/23 00:37:42;;;;;;;13.43;7.10;;;;;;;;;;5134509;27;20197;-78
2023/07/23 00:40:10;;;;;;;13.47;7.70;;;;;;;;;;5134164;27;20669;-79
2023/07/23 00:42:37;;;;;;;12.07;7.67;;;;;;;;;;5134609;27;20225;-77
2023/07/23 00:45:05;;;;;;;12.57;8.10;;;;;;;;;;5134602;27;20285;-77
2023/07/23 00:47:32;;;;;;;12.17;7.70;;;;;;;;;;5134580;27;20279;-78
2023/07/23 00:50:01;;;;;;;15.37;7.83;;;;;;;;;;5134867;27;20284;-78
2023/07/23 00:52:29;;;;;;;11.00;7.57;;;;;;;;;;5134048;27;20659;-78
2023/07/23 00:54:56;;;;;;;14.70;8.77;;;;;;;;;;5134432;27;20291;-78
2023/07/23 00:57:23;;;;;;;13.40;7.47;;;;;;;;;;5133915;27;20212;-78
2023/07/23 00:59:51;;;;;;;10.17;7.33;;;;;;;;;;5134567;27;20212;-79
2023/07/23 01:02:18;;;;;;;12.90;7.47;;;;;;;;;;5133590;27;20213;-77
2023/07/23 01:04:45;;;;;;;15.97;7.97;;;;;;;;;;5134011;27;20235;-78
2023/07/23 01:07:14;;;;;;;12.97;7.53;;;;;;;;;;5133815;27;20597;-78
2023/07/23 01:09:41;;;;;;;13.47;8.13;;;;;;;;;;5134456;27;20195;-79
2023/07/23 01:12:09;;;;;;;9.83;7.37;;;;;;;;;;5133023;27;20234;-78
2023/07/23 01:14:37;;;;;;;13.90;7.83;;;;;;;;;;5133887;27;20242;-78
2023/07/23 01:17:04;;;;;;;12.73;7.37;;;;;;;;;;5133763;27;20197;-79
2023/07/23 01:19:31;;;;;;;10.53;7.27;;;;;;;;;;5133701;27;20297;-78
2023/07/23 01:22:01;;;;;;;11.87;7.73;;;;;;;;;;5133885;27;20228;-79
2023/07/23 01:24:29;;;;;;;11.33;7.20;;;;;;;;;;5125835;27;20230;-78
2023/07/23 01:26:56;;;;;;;11.27;7.23;;;;;;;;;;5112694;28;20683;-78
2023/07/23 01:29:23;;;;;;;11.57;7.57;;;;;;;;;;5113037;28;20293;-78
2023/07/23 01:31:50;;;;;;;11.40;7.10;;;;;;;;;;5113213;28;20217;-79
2023/07/23 01:34:17;;;;;;;10.07;6.87;;;;;;;;;;5112915;28;20230;-78
2023/07/23 01:36:45;;;;;;;10.37;7.60;;;;;;;;;;5112794;28;20226;-78
2023/07/23 01:39:14;;;;;;;15.93;8.00;;;;;;;;;;5132100;27;20753;-79
2023/07/23 01:41:41;;;;;;;10.57;7.07;;;;;;;;;;5132642;27;20232;-78
2023/07/23 01:44:08;;;;;;;9.67;6.37;;;;;;;;;;5133120;27;20320;-79
2023/07/23 01:46:35;;;;;;;10.27;7.10;;;;;;;;;;5133144;27;20189;-79
2023/07/23 01:49:02;;;;;;;12.60;7.93;;;;;;;;;;5133337;27;20200;-77
2023/07/23 01:51:29;;;;;;;13.20;7.53;;;;;;;;;;5132890;27;20648;-79
2023/07/23 01:53:57;;;;;;;11.93;7.13;;;;;;;;;;5133532;27;20280;-80
2023/07/23 01:56:25;;;;;;;9.63;6.83;;;;;;;;;;5132824;27;20216;-79
2023/07/23 01:58:52;;;;;;;9.93;6.60;;;;;;;;;;5133062;27;20288;-79
2023/07/23 02:01:21;;;;;;;11.90;6.80;;;;;;;;;;5132764;27;20231;-79
2023/07/23 02:03:48;;;;;;;13.10;7.13;;;;;;;;;;5133136;27;20216;-78
2023/07/23 02:06:15;;;;;;;12.20;7.23;;;;;;;;;;5132978;27;20197;-78
2023/07/23 02:08:42;;;;;;;10.93;6.93;;;;;;;;;;5132978;27;20235;-78
2023/07/23 02:11:09;;;;;;;11.70;7.10;;;;;;;;;;5132534;27;20241;-79
2023/07/23 02:13:38;;;;;;;12.40;7.00;;;;;;;;;;5132613;27;20643;-79
2023/07/23 02:16:05;;;;;;;11.53;7.67;;;;;;;;;;5132650;27;20288;-78
2023/07/23 02:18:32;;;;;;;11.87;7.33;;;;;;;;;;5132924;27;20276;-79
2023/07/23 02:20:59;;;;;;;12.53;7.23;;;;;;;;;;5132687;27;20280;-80
2023/07/23 02:23:27;;;;;;;12.40;6.67;;;;;;;;;;5132373;27;20307;-78
2023/07/23 02:25:54;;;;;;;11.13;7.27;;;;;;;;;;5132192;27;20673;-79
2023/07/23 02:28:21;;;;;;;11.80;6.73;;;;;;;;;;5132408;27;20276;-78
2023/07/23 02:30:56;;;;;;;9.63;7.33;;;;;;;;;;5132057;27;20272;-79
2023/07/23 02:33:23;;;;;;;11.80;7.47;;;;;;;;;;5132665;27;20185;-79
2023/07/23 02:35:51;;;;;;;13.63;7.47;;;;;;;;;;5132544;27;20224;-78
2023/07/23 02:38:18;;;;;;;10.67;6.70;;;;;;;;;;5132273;27;20650;-78
2023/07/23 02:40:45;;;;;;;11.37;7.27;;;;;;;;;;5131833;27;20200;-78
2023/07/23 02:43:12;;;;;;;13.83;7.30;;;;;;;;;;5132284;27;20316;-78
2023/07/23 02:45:40;;;;;;;12.63;7.10;;;;;;;;;;5131975;27;20193;-79
2023/07/23 02:48:09;;;;;;;10.90;7.10;;;;;;;;;;5132048;27;20235;-77
2023/07/23 02:50:36;;;;;;;13.53;7.20;;;;;;;;;;5132371;27;20293;-78
2023/07/23 02:53:03;;;;;;;12.00;6.90;;;;;;;;;;5132122;27;20636;-79
2023/07/23 02:55:31;;;;;;;13.30;7.80;;;;;;;;;;5131786;27;20201;-78
2023/07/23 02:58:00;;;;;;;12.80;7.07;;;;;;;;;;5131749;28;20723;-79
2023/07/23 03:00:28;;;;;;;12.20;7.10;;;;;;;;;;5132027;28;20279;-79
2023/07/23 03:02:55;;;;;;;13.47;7.53;;;;;;;;;;5132062;27;20225;-78
2023/07/23 03:05:24;;;;;;;14.80;6.80;;;;;;;;;;5132283;28;20196;-78
2023/07/23 03:07:52;;;;;;;11.77;7.07;;;;;;;;;;5131537;27;20207;-78
2023/07/23 03:10:20;;;;;;;10.33;6.80;;;;;;;;;;5132100;27;20239;-77
2023/07/23 03:12:47;;;;;;;10.20;6.47;;;;;;;;;;5132090;28;20279;-79
2023/07/23 03:15:14;;;;;;;13.33;6.33;;;;;;;;;;5131452;27;20284;-78
2023/07/23 03:17:41;;;;;;;12.63;6.40;;;;;;;;;;5131823;28;20288;-78
2023/07/23 03:20:10;;;;;;;12.17;6.97;;;;;;;;;;5131860;27;20220;-79
2023/07/23 03:22:39;;;;;;;11.27;6.30;;;;;;;;;;5131275;28;20197;-79
2023/07/23 03:25:06;;;;;;;10.30;5.97;;;;;;;;;;5131916;28;20193;-77
2023/07/23 03:27:33;;;;;;;9.40;6.00;;;;;;;;;;5131882;28;20228;-78
2023/07/23 03:30:00;;;;;;;14.27;5.77;;;;;;;;;;5131417;28;20222;-78
2023/07/23 03:32:28;;;;;;;10.00;5.80;;;;;;;;;;5131609;27;20284;-78
2023/07/23 03:34:55;;;;;;;11.00;5.70;;;;;;;;;;5131842;28;20644;-77
2023/07/23 03:37:22;;;;;;;8.80;5.93;;;;;;;;;;5131753;28;20280;-79
2023/07/23 03:39:50;;;;;;;9.07;5.60;;;;;;;;;;5131847;28;20578;-79
2023/07/23 03:42:17;;;;;;;9.67;5.80;;;;;;;;;;5131438;28;20200;-79
2023/07/23 03:44:45;;;;;;;9.67;5.60;;;;;;;;;;5131596;28;20316;-79
2023/07/23 03:47:12;;;;;;;8.33;5.00;;;;;;;;;;5132050;28;20203;-78
2023/07/23 03:49:39;;;;;;;9.20;4.93;;;;;;;;;;5131553;28;20228;-79
2023/07/23 03:52:07;;;;;;;10.27;5.10;;;;;;;;;;5131028;28;20806;-78
2023/07/23 03:54:34;;;;;;;9.53;4.53;;;;;;;;;;5131766;28;20666;-78
2023/07/23 03:57:03;;;;;;;11.07;4.80;;;;;;;;;;5131787;28;20658;-79
2023/07/23 03:59:31;;;;;;;6.47;4.53;;;;;;;;;;5131568;27;20217;-79
2023/07/23 04:01:58;;;;;;;9.27;4.80;;;;;;;;;;5131468;28;20285;-78
2023/07/23 04:04:25;;;;;;;12.23;5.77;;;;;;;;;;5132519;27;20705;-79
2023/07/23 04:06:52;;;;;;;11.27;5.23;;;;;;;;;;5135017;27;20216;-78
2023/07/23 04:09:20;;;;;;;8.13;4.93;;;;;;;;;;5135292;27;20300;-79
2023/07/23 04:11:47;;;;;;;8.57;5.00;;;;;;;;;;5135073;27;20382;-78
2023/07/23 04:14:16;;;;;;;8.48;4.65;;;;;;;;;;5135077;27;20283;-79
2023/07/23 04:16:43;;;;;;;8.73;4.55;;;;;;;;;;5134833;27;20284;-79
2023/07/23 04:19:10;;;;;;;8.30;4.90;;;;;;;;;;5134926;27;20233;-78
2023/07/23 04:21:37;;;;;;;7.43;4.85;;;;;;;;;;5134341;27;20197;-78
2023/07/23 04:24:05;;;;;;;7.57;4.70;;;;;;;;;;5134888;27;20324;-79
2023/07/23 04:26:32;;;;;;;8.73;4.87;;;;;;;;;;5134981;27;20254;-79
2023/07/23 04:29:00;;;;;;;9.20;4.93;;;;;;;;;;5134722;27;20193;-79
2023/07/23 04:31:28;;;;;;;7.97;4.63;;;;;;;;;;5134736;27;20220;-78
2023/07/23 04:33:56;;;;;;;6.90;4.47;;;;;;;;;;5134834;27;20280;-78
2023/07/23 04:36:23;;;;;;;8.37;4.60;;;;;;;;;;5134936;27;20280;-78
2023/07/23 04:38:50;;;;;;;8.90;5.27;;;;;;;;;;5134494;27;20212;-78
2023/07/23 04:41:17;;;;;;;9.07;4.50;;;;;;;;;;5134351;27;20197;-78
2023/07/23 04:43:45;;;;;;;6.63;4.60;;;;;;;;;;5134607;27;20319;-79
2023/07/23 04:46:12;;;;;;;9.63;5.00;;;;;;;;;;5134244;27;20280;-78
2023/07/23 04:48:40;;;;;;;9.63;4.80;;;;;;;;;;5134605;27;20229;-78
2023/07/23 04:51:11;;;;;;;7.90;4.27;;;;;;;;;;5133557;27;20682;-79
2023/07/23 04:53:38;;;;;;;8.17;4.60;;;;;;;;;;5134320;27;20223;-79
2023/07/23 04:56:06;;;;;;;9.37;4.77;;;;;;;;;;5134409;27;20299;-79
2023/07/23 04:58:33;;;;;;;7.70;4.70;;;;;;;;;;5134323;27;20292;-78
2023/07/23 05:01:07;;;;;;;8.47;4.50;;;;;;;;;;5133832;27;20289;-78
2023/07/23 05:03:34;;;;;;;8.10;4.67;;;;;;;;;;5133719;27;20724;-78
2023/07/23 05:06:04;;;;;;;7.53;4.43;;;;;;;;;;5133463;27;20671;-78
2023/07/23 05:08:31;;;;;;;7.70;4.30;;;;;;;;;;5134181;27;20574;-78
2023/07/23 05:11:02;;;;;;;8.13;4.15;;;;;;;;;;5134142;27;20203;-79
2023/07/23 05:13:29;;;;;;;8.80;4.40;;;;;;;;;;5134026;27;20193;-80
2023/07/23 05:15:56;;;;;;;9.70;4.50;;;;;;;;;;5133452;27;20284;-77
2023/07/23 05:18:24;;;;;;;7.93;4.13;;;;;;;;;;5132703;27;20284;-78
2023/07/23 05:20:51;;;;;;;7.87;4.27;;;;;;;;;;5133633;27;20303;-79
2023/07/23 05:23:20;;;;;;;7.40;4.00;;;;;;;;;;5133678;27;20288;-77
2023/07/23 05:25:46;;;;;;;5.82;3.78;;;;;;;;;;5133531;27;20700;-78
2023/07/23 05:28:14;;;;;;;7.53;3.75;;;;;;;;;;5133652;27;20193;-78
2023/07/23 05:30:41;;;;;;;8.03;3.70;;;;;;;;;;5133857;27;20733;-78
2023/07/23 05:33:09;;;;;;;6.50;3.50;;;;;;;;;;5132799;27;20288;-78
2023/07/23 05:35:36;;;;;;;7.15;3.92;;;;;;;;;;5133406;27;20232;-78
2023/07/23 05:38:03;;;;;;;6.57;3.77;;;;;;;;;;5133066;27;20980;-78
2023/07/23 05:40:35;;;;;;;6.83;3.77;;;;;;;;;;5133454;27;20625;-78
2023/07/23 05:43:08;;;;;;;6.60;3.80;;;;;;;;;;5134183;27;20246;-79
2023/07/23 05:45:35;;;;;;;7.43;3.80;;;;;;;;;;5133094;27;20614;-79
2023/07/23 05:48:03;;;;;;;6.00;4.10;;;;;;;;;;5133096;27;20193;-79
2023/07/23 05:50:30;;;;;;;8.00;3.73;;;;;;;;;;5133038;27;20280;-77
2023/07/23 05:52:57;;;;;;;6.50;3.67;;;;;;;;;;5133082;27;20193;-78
2023/07/23 05:55:24;;;;;;;6.25;3.30;;;;;;;;;;5133167;27;20219;-79
2023/07/23 05:57:53;;;;;;;6.63;3.40;;;;;;;;;;5133253;27;20197;-78
2023/07/23 06:00:20;;;;;;;5.80;3.22;;;;;;;;;;5132980;27;20634;-80
2023/07/23 06:02:47;;;;;;;4.80;3.42;;;;;;;;;;5132678;27;20189;-78
2023/07/23 06:05:14;;;;;;;6.30;3.60;;;;;;;;;;5132769;27;20228;-78
2023/07/23 06:07:41;;;;;;;6.22;3.30;;;;;;;;;;5133049;27;20300;-79
2023/07/23 06:10:09;;;;;;;5.47;2.88;;;;;;;;;;5132724;27;20284;-79
2023/07/23 06:12:36;;;;;;;6.00;3.20;;;;;;;;;;5132601;27;20193;-79
2023/07/23 06:15:05;;;;;;;5.68;3.38;;;;;;;;;;5133078;27;20197;-79
2023/07/23 06:17:32;;;;;;;4.28;2.90;;;;;;;;;;5132051;27;20205;-79
2023/07/23 06:19:59;;;;;;;4.40;2.85;;;;;;;;;;5132728;27;20197;-78
2023/07/23 06:22:26;;;;;;;5.68;2.90;;;;;;;;;;5132442;27;20248;-78
2023/07/23 06:24:54;;;;;;;5.57;2.83;;;;;;;;;;5132240;27;20308;-78
2023/07/23 06:27:21;;;;;;;5.38;2.60;;;;;;;;;;5132195;27;20224;-78
2023/07/23 06:29:48;;;;;;;4.50;2.78;;;;;;;;;;5132622;27;20279;-78
2023/07/23 06:32:16;;;;;;;5.95;2.60;;;;;;;;;;5132256;27;20289;-79
2023/07/23 06:34:43;;;;;;;3.20;2.57;;;;;;;;;;5132305;27;20288;-78
2023/07/23 06:37:11;;;;;;;4.68;2.55;;;;;;;;;;5132245;27;20291;-77
2023/07/23 06:39:38;;;;;;;3.25;2.10;;;;;;;;;;5131948;27;20284;-79
2023/07/23 06:42:05;;;;;;;4.68;2.30;;;;;;;;;;5132204;27;20232;-79
2023/07/23 06:44:32;;;;;;;3.50;2.05;;;;;;;;;;5132347;27;20311;-79
2023/07/23 06:47:00;;;;;;;4.60;2.03;;;;;;;;;;5132041;27;20224;-79
2023/07/23 06:49:30;;;;;;;3.60;2.00;;;;;;;;;;5132400;27;20710;-79
2023/07/23 06:51:57;;;;;;;4.05;1.67;;;;;;;;;;5132000;27;20639;-78
2023/07/23 06:54:24;;;;;;;3.45;1.65;;;;;;;;;;5132226;27;20225;-80
2023/07/23 06:56:52;;;;;;;2.42;1.65;;;;;;;;;;5131969;28;20757;-79
2023/07/23 06:59:20;;;;;;;2.90;1.65;;;;;;;;;;5132213;27;20226;-78
2023/07/23 07:01:47;;;;;;;2.92;1.80;;;;;;;;;;5131738;27;20657;-79
2023/07/23 07:04:14;;;;;;;2.45;1.58;;;;;;;;;;5131981;27;20221;-79
2023/07/23 07:06:43;;;;;;;2.90;1.83;;;;;;;;;;5131574;27;20201;-79
2023/07/23 07:09:11;;;;;;;2.65;1.73;;;;;;;;;;5131908;27;20199;-79
2023/07/23 07:11:38;;;;;;;2.67;1.80;;;;;;;;;;5132092;27;20738;-78
2023/07/23 07:14:05;;;;;;;3.10;1.65;;;;;;;;;;5132120;27;20542;-79
2023/07/23 07:16:33;;;;;;;2.50;1.70;;;;;;;;;;5131711;27;20211;-78
2023/07/23 07:19:00;;;;;;;3.92;1.60;;;;;;;;;;5131926;28;20292;-78
2023/07/23 07:21:27;;;;;;;2.70;1.60;;;;;;;;;;5131788;28;20236;-79
2023/07/23 07:23:56;;;;;;;3.03;1.52;;;;;;;;;;5131275;28;20280;-79
2023/07/23 07:26:23;;;;;;;4.38;1.85;;;;;;;;;;5131813;28;20288;-79
2023/07/23 07:28:51;;;;;;;2.58;1.58;;;;;;;;;;5131396;27;20216;-79
2023/07/23 07:31:18;;;;;;;2.47;1.50;;;;;;;;;;5131833;27;20189;-79
2023/07/23 07:33:46;;;;;;;3.45;1.60;;;;;;;;;;5131839;28;20221;-78
2023/07/23 07:36:13;;;;;;;1.75;1.38;;;;;;;;;;5131454;28;20197;-78
2023/07/23 07:38:41;;;;;;;2.05;1.27;;;;;;;;;;5131920;27;20193;-79
2023/07/23 07:41:09;;;;;;;1.95;1.33;;;;;;;;;;5135906;27;20197;-79
2023/07/23 07:43:37;;;;;;;1.88;1.23;;;;;;;;;;5135316;27;20297;-79
2023/07/23 07:46:05;;;;;;;2.40;1.50;;;;;;;;;;5135524;27;20667;-79
2023/07/23 07:48:35;;;;;;;3.35;1.60;;;;;;;;;;5135403;27;20685;-79
2023/07/23 07:51:03;;;;;;;3.28;2.10;;;;;;;;;;5135132;27;20225;-78
2023/07/23 07:53:30;;;;;;;3.20;2.35;;;;;;;;;;5135870;27;20189;-79
2023/07/23 07:55:57;;;;;;;3.13;2.40;;;;;;;;;;5135639;27;20197;-78
2023/07/23 07:58:27;;;;;;;4.35;2.33;;;;;;;;;;5135163;27;20231;-79
2023/07/23 08:00:55;;;;;;;3.03;1.92;;;;;;;;;;5135128;27;20661;-78
2023/07/23 08:03:24;;;;;;;2.15;1.58;;;;;;;;;;5135172;27;20216;-79
2023/07/23 08:05:51;;;;;;;1.98;1.67;;;;;;;;;;5134978;27;20235;-79
2023/07/23 08:08:20;;;;;;;2.53;1.65;;;;;;;;;;5135721;27;20193;-79
2023/07/23 08:10:48;;;;;;;3.85;1.80;;;;;;;;;;5123363;27;20237;-78
2023/07/23 08:13:16;;;;;;;2.65;1.90;;;;;;;;;;5121331;27;20697;-78
2023/07/23 08:15:45;;;;;;;2.70;1.67;;;;;;;;;;5118811;27;20288;-81
2023/07/23 08:18:13;;;;;;;3.35;1.60;;;;;;;;;;5135413;27;20200;-81
2023/07/23 08:20:40;;;;;;;1.83;1.50;;;;;;;;;;5135071;27;20694;-81
2023/07/23 08:23:08;;;;;;;2.90;1.63;;;;;;;;;;5134955;27;20217;-81
2023/07/23 08:25:36;;;;;;;3.30;1.80;;;;;;;;;;5134523;27;20323;-82
2023/07/23 08:28:03;;;;;;;3.55;1.60;;;;;;;;;;5134859;27;20280;-82
2023/07/23 08:30:31;;;;;;;2.75;1.55;;;;;;;;;;5134766;27;20193;-81
2023/07/23 08:33:01;;;;;;;3.72;1.73;;;;;;;;;;5134231;27;20696;-81
2023/07/23 08:35:29;;;;;;;3.40;1.55;;;;;;;;;;5134798;27;20197;-80
2023/07/23 08:37:57;;;;;;;4.35;1.80;;;;;;;;;;5134901;27;20280;-76
2023/07/23 08:40:25;;;;;;;2.33;1.65;;;;;;;;;;5134944;27;20284;-79
2023/07/23 08:43:19;;;;;;;1.95;1.52;;;;;;;;;;5134621;27;20287;-80
2023/07/23 08:46:11;;;;;;;2.50;1.60;;;;;;;;;;5134215;27;20228;-80
2023/07/23 08:48:54;;;;;;;2.00;1.38;;;;;;;;;;5134238;27;20281;-80
2023/07/23 08:51:22;;;;;;;4.25;1.55;;;;;;;;;;5133989;27;20320;-79
2023/07/23 08:53:50;;;;;;;2.22;1.58;;;;;;;;;;5134406;27;20273;-79
2023/07/23 08:56:17;;;;;;;3.42;1.60;;;;;;;;;;5133834;27;20291;-79
2023/07/23 08:58:45;;;;;;;4.18;1.80;;;;;;;;;;5134049;27;20310;-79
2023/07/23 09:01:15;;;;;;;2.85;1.88;;;;;;;;;;5134782;27;20204;-80
2023/07/23 09:03:44;;;;;;;4.22;2.15;;;;;;;;;;5133285;27;20225;-80
2023/07/23 09:06:11;;;;;;;4.63;2.15;;;;;;;;;;5128001;27;20666;-79
2023/07/23 09:08:38;;;;;;;3.35;2.13;;;;;;;;;;5116354;27;20288;-77
2023/07/23 09:11:09;;;;;;;4.47;2.00;;;;;;;;;;5112843;28;20288;-80
2023/07/23 09:13:38;;;;;;;3.08;2.08;;;;;;;;;;5113508;28;20202;-78
2023/07/23 09:16:06;;;;;;;4.28;2.45;;;;;;;;;;4763362;27;9999833;-78
2023/07/23 09:18:34;;;;;;;5.80;2.42;;;;;;;;;;5130690;27;20193;-80
2023/07/23 09:21:03;;;;;;;4.20;2.58;;;;;;;;;;5130895;27;20280;-78
2023/07/23 09:23:31;;;;;;;5.05;2.47;;;;;;;;;;5129735;27;20228;-79
2023/07/23 09:25:58;;;;;;;6.00;2.35;;;;;;;;;;5131824;27;20270;-79
2023/07/23 09:28:26;;;;;;;3.97;2.50;;;;;;;;;;5133764;27;20227;-79
2023/07/23 09:30:54;;;;;;;5.30;2.30;;;;;;;;;;5134738;27;20220;-82
2023/07/23 09:33:22;;;;;;;4.95;2.20;;;;;;;;;;5135006;27;20199;-82
2023/07/23 09:35:49;;;;;;;3.58;2.25;;;;;;;;;;5134124;27;20636;-82
2023/07/23 09:38:17;;;;;;;5.00;2.25;;;;;;;;;;5121121;27;20300;-80
2023/07/23 09:40:45;;;;;;;5.60;2.75;;;;;;;;;;5114138;28;20639;-82
2023/07/23 09:43:13;;;;;;;4.00;2.50;;;;;;;;;;5114252;28;20202;-80
2023/07/23 09:45:41;;;;;;;5.60;2.60;;;;;;;;;;5129844;27;20229;-80
2023/07/23 09:48:08;;;;;;;5.25;2.67;;;;;;;;;;5133537;27;20207;-81
2023/07/23 09:50:37;;;;;;;4.10;2.53;;;;;;;;;;5132857;27;20250;-80
2023/07/23 09:53:04;;;;;;;6.13;3.33;;;;;;;;;;5132546;27;20253;-81
2023/07/23 09:55:33;;;;;;;6.50;3.03;;;;;;;;;;5133929;27;20231;-81
2023/07/23 09:58:02;;;;;;;8.00;3.13;;;;;;;;;;5132449;27;20197;-80
2023/07/23 10:00:29;;;;;;;4.68;3.47;;;;;;;;;;5125209;27;20291;-80
2023/07/23 10:02:57;;;;;;;5.45;3.10;;;;;;;;;;5129404;27;20280;-80
2023/07/23 10:05:27;;;;;;;5.20;3.28;;;;;;;;;;5139903;27;20379;-79
2023/07/23 10:07:54;;;;;;;7.10;3.13;;;;;;;;;;5136200;27;20609;-80
2023/07/23 10:10:24;;;;;;;6.68;2.97;;;;;;;;;;5132813;27;20288;-79
2023/07/23 10:12:52;;;;;;;6.00;2.95;;;;;;;;;;5135768;27;20669;-79
2023/07/23 10:15:20;;;;;;;7.45;3.03;;;;;;;;;;5132863;27;20197;-80
2023/07/23 10:17:49;;;;;;;7.43;3.72;;;;;;;;;;5132729;27;20220;-80
2023/07/23 10:20:17;;;;;;;7.10;3.40;;;;;;;;;;5132927;27;20254;-80
2023/07/23 10:22:46;;;;;;;8.30;4.22;;;;;;;;;;5132623;27;20280;-81
2023/07/23 10:25:24;;;;;;;6.22;3.30;;;;;;;;;;5129430;27;20356;-80
2023/07/23 10:27:59;;;;;;;6.43;3.15;;;;;;;;;;5123583;27;20193;-80
2023/07/23 10:30:26;;;;;;;5.97;3.22;;;;;;;;;;5133071;27;20228;-81
2023/07/23 10:33:13;;;;;;;6.35;2.90;;;;;;;;;;5130392;27;20701;-80
2023/07/23 10:36:04;;;;;;;6.03;2.60;;;;;;;;;;5112049;28;20254;-80
2023/07/23 10:38:32;;;;;;;5.38;2.60;;;;;;;;;;5103179;27;20206;-79
2023/07/23 10:41:00;;;;;;;4.80;2.40;;;;;;;;;;5111692;27;20654;-79
2023/07/23 10:43:39;;;;;;;4.28;2.42;;;;;;;;;;5120970;27;20197;-79
2023/07/23 10:46:07;;;;;;;4.70;2.70;;;;;;;;;;5114174;28;20324;-80
2023/07/23 10:48:45;;;;;;;5.75;2.38;;;;;;;;;;5111458;27;20314;-79
2023/07/23 10:51:13;;;;;;;3.70;2.45;;;;;;;;;;5114887;27;20316;-80
2023/07/23 10:53:41;;;;;;;3.13;2.13;;;;;;;;;;5111038;28;20258;-80
2023/07/23 10:56:22;;;;;;;3.40;2.17;;;;;;;;;;5116630;27;20201;-80
2023/07/23 10:58:51;;;;;;;3.63;2.08;;;;;;;;;;5111011;28;20654;-80
2023/07/23 11:01:21;;;;;;;3.45;1.95;;;;;;;;;;5131539;27;20233;-82
2023/07/23 11:03:49;;;;;;;2.53;2.00;;;;;;;;;;5127677;28;20271;-80
2023/07/23 11:06:29;;;;;;;2.65;2.20;;;;;;;;;;5111011;28;20222;-79
2023/07/23 11:08:57;;;;;;;2.67;2.30;;;;;;;;;;5111367;28;20293;-80
2023/07/23 11:11:46;;;;;;;3.42;2.58;;;;;;;;;;5111685;28;20205;-79
2023/07/23 11:14:21;;;;;;;3.22;2.30;;;;;;;;;;5109992;27;20284;-79
2023/07/23 11:16:49;;;;;;;2.88;2.20;;;;;;;;;;5125703;27;20277;-79
2023/07/23 11:19:17;;;;;;;5.38;2.50;;;;;;;;;;5128914;27;20236;-80
2023/07/23 11:21:45;;;;;;;3.67;2.25;;;;;;;;;;5116182;27;20225;-79
2023/07/23 11:24:13;;;;;;;2.30;1.80;;;;;;;;;;5117449;27;20258;-79
2023/07/23 11:26:40;;;;;;;2.50;1.75;;;;;;;;;;5120276;27;20232;-79
2023/07/23 11:29:07;;;;;;;3.53;1.83;;;;;;;;;;5115392;28;20689;-79
2023/07/23 11:31:36;;;;;;;2.30;1.60;;;;;;;;;;5117012;27;20280;-80
2023/07/23 11:34:03;;;;;;;2.40;1.60;;;;;;;;;;5135130;27;20207;-79
2023/07/23 11:36:30;;;;;;;2.85;1.80;;;;;;;;;;5131940;27;20197;-80
2023/07/23 11:38:58;;;;;;;2.88;1.50;;;;;;;;;;5114612;27;20225;-80
2023/07/23 11:41:29;;;;;;;2.10;1.50;;;;;;;;;;5114873;28;20289;-79
2023/07/23 11:43:57;;;;;;;1.70;1.30;;;;;;;;;;5131051;27;20205;-79
2023/07/23 11:46:24;;;;;;;2.38;1.23;;;;;;;;;;5135643;27;20781;-80
2023/07/23 11:48:54;;;;;;;2.95;1.67;;;;;;;;;;5135596;27;20197;-80
2023/07/23 11:51:22;;;;;;;2.92;2.03;;;;;;;;;;5146309;27;20704;-80
2023/07/23 11:53:51;;;;;;;6.22;2.40;;;;;;;;;;5156549;27;20195;-80
2023/07/23 11:56:19;;;;;;;7.47;3.05;;;;;;;;;;5156387;27;20203;-80
2023/07/23 11:58:46;;;;;;;5.57;3.00;;;;;;;;;;5137959;27;20250;-80
2023/07/23 12:01:13;;;;;;;5.28;3.05;;;;;;;;;;5135107;27;20665;-79
2023/07/23 12:03:41;;;;;;;6.72;2.92;;;;;;;;;;5135452;27;20193;-79
2023/07/23 12:06:10;;;;;;;6.38;2.90;;;;;;;;;;5134862;27;20731;-80
2023/07/23 12:08:39;;;;;;;7.30;3.58;;;;;;;;;;5135309;27;20197;-81
2023/07/23 12:11:10;;;;;;;7.53;3.20;;;;;;;;;;5135310;27;20234;-80
2023/07/23 12:13:42;;;;;;;10.50;3.58;;;;;;;;;;5135099;27;20291;-79
2023/07/23 12:16:13;;;;;;;9.02;3.60;;;;;;;;;;5122032;27;20201;-80
2023/07/23 12:18:44;;;;;;;8.35;3.40;;;;;;;;;;5134429;27;20224;-79
2023/07/23 12:21:16;;;;;;;11.63;3.95;;;;;;;;;;5135253;27;20883;-79
2023/07/23 12:23:43;;;;;;;8.60;3.90;;;;;;;;;;5134774;27;20245;-79
2023/07/23 12:26:11;;;;;;;8.18;3.80;;;;;;;;;;5133235;27;20304;-78
2023/07/23 12:28:38;;;;;;;9.38;3.63;;;;;;;;;;5134873;27;20224;-79
2023/07/23 12:31:05;;;;;;;8.57;3.55;;;;;;;;;;5135258;27;20243;-79
2023/07/23 12:33:32;;;;;;;6.60;3.70;;;;;;;;;;5134279;27;20248;-78
2023/07/23 12:35:59;;;;;;;8.77;4.20;;;;;;;;;;5134271;27;20197;-79
2023/07/23 12:38:28;;;;;;;8.25;3.95;;;;;;;;;;5134367;27;20281;-79
2023/07/23 12:40:55;;;;;;;7.82;3.88;;;;;;;;;;5134674;27;20201;-79
2023/07/23 12:43:23;;;;;;;12.80;5.20;;;;;;;;;;5134334;27;20197;-78
2023/07/23 12:45:50;;;;;;;8.70;4.07;;;;;;;;;;5134308;27;20227;-78
2023/07/23 12:48:17;;;;;;;9.95;4.57;;;;;;;;;;5138290;27;20295;-78
2023/07/23 12:50:44;;;;;;;8.15;4.07;;;;;;;;;;5141056;27;20730;-78
2023/07/23 12:53:11;;;;;;;11.75;5.25;;;;;;;;;;5130750;27;20223;-78
2023/07/23 12:55:40;;;;;;;8.77;4.63;;;;;;;;;;5113891;27;20284;-79
2023/07/23 12:58:07;;;;;;;10.68;5.05;;;;;;;;;;5113923;27;20609;-79
2023/07/23 13:00:35;;;;;;;11.13;5.93;;;;;;;;;;5113648;28;20222;-78
2023/07/23 13:03:03;;;;;;;10.25;4.90;;;;;;;;;;5113301;28;20296;-78
2023/07/23 13:05:33;;;;;;;10.02;5.32;;;;;;;;;;5113726;28;20225;-78
2023/07/23 13:08:00;;;;;;;8.57;4.68;;;;;;;;;;5121407;27;20243;-79
2023/07/23 13:10:28;;;;;;;10.30;4.65;;;;;;;;;;5134177;27;20207;-78
2023/07/23 13:12:57;;;;;;;8.43;4.68;;;;;;;;;;5133947;27;20197;-79
2023/07/23 13:15:24;;;;;;;9.70;4.38;;;;;;;;;;5133635;27;20287;-77
2023/07/23 13:17:51;;;;;;;10.25;5.07;;;;;;;;;;5125145;27;20225;-78
2023/07/23 13:20:18;;;;;;;9.15;4.53;;;;;;;;;;5113322;28;20198;-78
2023/07/23 13:22:45;;;;;;;10.85;4.70;;;;;;;;;;5113401;27;20198;-77
2023/07/23 13:25:13;;;;;;;9.43;4.07;;;;;;;;;;4763004;27;10000525;-78
2023/07/23 13:27:40;;;;;;;7.95;4.07;;;;;;;;;;5127292;27;20320;-78
2023/07/23 13:30:09;;;;;;;10.60;4.45;;;;;;;;;;5126234;27;20287;-78
2023/07/23 13:32:36;;;;;;;7.57;4.03;;;;;;;;;;5127604;27;20237;-79
2023/07/23 13:35:03;;;;;;;7.82;3.75;;;;;;;;;;5130018;27;20665;-78
2023/07/23 13:37:31;;;;;;;6.40;3.75;;;;;;;;;;5129827;27;20220;-78
2023/07/23 13:39:58;;;;;;;7.55;3.67;;;;;;;;;;5130302;27;20792;-78
2023/07/23 13:42:25;;;;;;;7.15;3.60;;;;;;;;;;5128703;27;20242;-78
2023/07/23 13:44:52;;;;;;;5.60;3.10;;;;;;;;;;5129893;27;20246;-77
2023/07/23 13:47:21;;;;;;;5.30;3.35;;;;;;;;;;5128645;27;20269;-79
2023/07/23 13:49:48;;;;;;;10.20;3.72;;;;;;;;;;5109848;27;20216;-78
2023/07/23 13:52:16;;;;;;;8.88;3.83;;;;;;;;;;5109211;28;20260;-79
2023/07/23 13:54:44;;;;;;;7.55;3.53;;;;;;;;;;5109089;27;20197;-78
2023/07/23 13:57:11;;;;;;;6.43;3.20;;;;;;;;;;5122439;27;20288;-79
2023/07/23 13:59:38;;;;;;;6.78;3.35;;;;;;;;;;5122793;27;20225;-78
2023/07/23 14:02:05;;;;;;;6.97;3.53;;;;;;;;;;5132866;27;20212;-78
2023/07/23 14:04:34;;;;;;;6.30;3.50;;;;;;;;;;5118791;27;20655;-79
2023/07/23 14:07:01;;;;;;;5.65;3.08;;;;;;;;;;5127590;27;20315;-79
2023/07/23 14:09:28;;;;;;;6.90;3.53;;;;;;;;;;5133118;27;20213;-78
2023/07/23 14:11:56;;;;;;;8.07;3.50;;;;;;;;;;5132932;27;20276;-79
2023/07/23 14:14:23;;;;;;;5.85;3.10;;;;;;;;;;5133083;27;20269;-78
2023/07/23 14:16:50;;;;;;;8.20;3.67;;;;;;;;;;5132474;27;20296;-79
2023/07/23 14:19:17;;;;;;;5.93;3.25;;;;;;;;;;5132704;27;20215;-80
2023/07/23 14:21:46;;;;;;;5.88;2.88;;;;;;;;;;5132780;27;20287;-80
2023/07/23 14:24:13;;;;;;;5.57;3.22;;;;;;;;;;5132305;27;20776;-79
2023/07/23 14:26:41;;;;;;;4.63;3.10;;;;;;;;;;5132530;27;20301;-79
2023/07/23 14:29:08;;;;;;;6.32;3.08;;;;;;;;;;5132487;27;20279;-78
2023/07/23 14:31:35;;;;;;;7.10;2.70;;;;;;;;;;5132552;27;20568;-77
2023/07/23 14:34:02;;;;;;;4.03;2.38;;;;;;;;;;5132581;27;20235;-78
2023/07/23 14:36:30;;;;;;;4.50;2.10;;;;;;;;;;5132857;27;20246;-79
2023/07/23 14:38:58;;;;;;;3.97;2.00;;;;;;;;;;5132747;27;20257;-80
2023/07/23 14:41:25;;;;;;;4.78;2.40;;;;;;;;;;5132926;27;20654;-79
2023/07/23 14:43:53;;;;;;;3.88;2.20;;;;;;;;;;5132276;27;20200;-79